createdAt,value
2023-04-09T00:00:26.554Z,13.90
2023-04-09T00:02:30.497Z,14.32
2023-04-09T00:04:33.149Z,14.98
2023-04-09T00:06:35.823Z,13.93
2023-04-09T00:08:38.346Z,15.50
2023-04-09T00:10:40.931Z,14.45
2023-04-09T00:12:43.536Z,14.30
2023-04-09T00:14:46.099Z,13.85
2023-04-09T00:16:48.648Z,14.13
2023-04-09T00:18:52.843Z,14.18
2023-04-09T00:20:55.634Z,14.77
2023-04-09T00:22:58.244Z,14.88
2023-04-09T00:25:01.205Z,14.52
2023-04-09T00:27:03.816Z,14.20
2023-04-09T00:29:06.407Z,14.00
2023-04-09T00:31:09.781Z,13.68
2023-04-09T00:33:12.359Z,14.88
2023-04-09T00:35:17.493Z,15.15
2023-04-09T00:37:20.083Z,15.18
2023-04-09T00:39:22.630Z,14.73
2023-04-09T00:41:25.197Z,14.30
2023-04-09T00:43:27.968Z,13.90
2023-04-09T00:45:30.602Z,13.90
2023-04-09T00:47:34.476Z,15.75
2023-04-09T00:49:37.132Z,14.43
2023-04-09T00:51:41.547Z,14.90
2023-04-09T00:53:45.197Z,15.75
2023-04-09T00:55:47.918Z,15.18
2023-04-09T00:57:50.694Z,15.27
2023-04-09T00:59:53.306Z,14.77
2023-04-09T01:01:55.950Z,14.38
2023-04-09T01:03:58.925Z,13.75
2023-04-09T01:06:08.912Z,15.32
2023-04-09T01:08:20.337Z,15.55
2023-04-09T01:10:32.361Z,14.85
2023-04-09T01:12:43.779Z,15.48
2023-04-09T01:14:50.777Z,15.02
2023-04-09T01:16:58.538Z,14.43
2023-04-09T01:19:08.867Z,14.00
2023-04-09T01:21:14.805Z,14.15
2023-04-09T01:23:27.640Z,14.75
2023-04-09T01:25:44.720Z,14.55
2023-04-09T01:27:58.615Z,14.55
2023-04-09T01:30:06.512Z,13.52
2023-04-09T01:32:09.690Z,15.07
2023-04-09T01:34:12.756Z,15.20
2023-04-09T01:36:16.106Z,15.25
2023-04-09T01:38:20.700Z,14.52
2023-04-09T01:40:23.597Z,15.25
2023-04-09T01:42:26.982Z,13.30
2023-04-09T01:44:30.513Z,14.50
2023-04-09T01:46:35.095Z,15.43
2023-04-09T01:48:39.019Z,14.60
2023-04-09T01:50:42.231Z,14.93
2023-04-09T01:52:45.085Z,15.88
2023-04-09T01:54:47.651Z,14.90
2023-04-09T01:56:50.207Z,14.90
2023-04-09T01:58:53.232Z,14.20
2023-04-09T02:01:04.779Z,14.93
2023-04-09T02:03:11.828Z,15.27
2023-04-09T02:05:23.247Z,15.10
2023-04-09T02:07:36.797Z,14.55
2023-04-09T02:09:42.023Z,14.68
2023-04-09T02:11:46.147Z,16.30
2023-04-09T02:13:50.613Z,15.23
2023-04-09T02:15:53.720Z,15.30
2023-04-09T02:17:56.443Z,14.57
2023-04-09T02:20:00.428Z,15.20
2023-04-09T02:22:05.472Z,15.02
2023-04-09T02:24:08.015Z,14.98
2023-04-09T02:26:10.546Z,14.60
2023-04-09T02:28:13.232Z,14.85
2023-04-09T02:30:15.890Z,15.10
2023-04-09T02:32:18.493Z,14.20
2023-04-09T02:34:21.269Z,14.82
2023-04-09T02:36:25.897Z,15.23
2023-04-09T02:38:28.430Z,15.10
2023-04-09T02:40:33.839Z,14.85
2023-04-09T02:42:36.383Z,15.25
2023-04-09T02:44:38.943Z,13.98
2023-04-09T02:46:42.541Z,14.65
2023-04-09T02:48:45.140Z,14.25
2023-04-09T02:50:47.731Z,15.40
2023-04-09T02:52:51.636Z,14.48
2023-04-09T02:54:54.172Z,15.13
2023-04-09T02:56:56.709Z,16.10
2023-04-09T02:58:59.248Z,14.50
2023-04-09T03:01:01.869Z,16.85
2023-04-09T03:03:04.657Z,16.23
2023-04-09T03:05:08.137Z,15.88
2023-04-09T03:07:10.767Z,14.60
2023-04-09T03:09:14.648Z,16.35
2023-04-09T03:11:17.416Z,15.88
2023-04-09T03:13:19.964Z,15.32
2023-04-09T03:15:22.555Z,14.48
2023-04-09T03:17:27.188Z,13.80
2023-04-09T03:19:31.487Z,14.40
2023-04-09T03:21:34.138Z,13.85
2023-04-09T03:23:37.177Z,13.63
2023-04-09T03:25:41.071Z,15.23
2023-04-09T03:27:43.645Z,14.30
2023-04-09T03:29:46.165Z,14.65
2023-04-09T03:31:48.680Z,14.88
2023-04-09T03:33:51.292Z,15.60
2023-04-09T03:35:53.957Z,14.70
2023-04-09T03:37:56.518Z,16.23
2023-04-09T03:39:59.087Z,15.88
2023-04-09T03:42:03.016Z,16.70
2023-04-09T03:44:05.993Z,16.15
2023-04-09T03:46:13.085Z,16.33
2023-04-09T03:48:15.666Z,16.38
2023-04-09T03:50:20.099Z,16.02
2023-04-09T03:52:22.668Z,15.85
2023-04-09T03:54:25.195Z,15.38
2023-04-09T03:56:27.809Z,14.88
2023-04-09T03:58:32.856Z,14.15
2023-04-09T04:00:35.409Z,15.05
2023-04-09T04:02:38.139Z,16.55
2023-04-09T04:04:40.860Z,14.82
2023-04-09T04:06:43.468Z,16.35
2023-04-09T04:08:45.996Z,16.05
2023-04-09T04:10:48.538Z,16.08
2023-04-09T04:12:51.139Z,16.92
2023-04-09T04:14:55.051Z,16.75
2023-04-09T04:16:57.602Z,16.65
2023-04-09T04:19:00.388Z,16.63
2023-04-09T04:21:03.008Z,15.98
2023-04-09T04:23:06.509Z,16.10
2023-04-09T04:25:09.517Z,15.80
2023-04-09T04:27:12.022Z,15.77
2023-04-09T04:29:14.597Z,18.77
2023-04-09T04:31:18.536Z,16.40
2023-04-09T04:33:21.130Z,16.75
2023-04-09T04:35:23.916Z,17.00
2023-04-09T04:37:26.658Z,16.70
2023-04-09T04:39:29.255Z,16.73
2023-04-09T04:41:31.849Z,17.80
2023-04-09T04:43:35.062Z,19.13
2023-04-09T04:45:37.626Z,19.75
2023-04-09T04:47:41.593Z,18.83
2023-04-09T04:49:44.110Z,19.73
2023-04-09T04:51:46.690Z,20.00
2023-04-09T04:53:49.238Z,19.00
2023-04-09T04:55:52.021Z,17.52
2023-04-09T04:57:57.583Z,17.60
2023-04-09T05:00:00.173Z,18.33
2023-04-09T05:02:06.020Z,19.10
2023-04-09T05:04:09.960Z,19.30
2023-04-09T05:06:12.536Z,20.05
2023-04-09T05:08:15.152Z,20.42
2023-04-09T05:10:17.728Z,19.02
2023-04-09T05:12:20.369Z,19.08
2023-04-09T05:14:23.984Z,18.98
2023-04-09T05:16:27.043Z,18.30
2023-04-09T05:18:29.642Z,18.48
2023-04-09T05:20:33.579Z,19.15
2023-04-09T05:22:36.229Z,20.02
2023-04-09T05:24:38.803Z,19.27
2023-04-09T05:26:41.368Z,18.98
2023-04-09T05:28:43.904Z,18.45
2023-04-09T05:30:47.732Z,17.20
2023-04-09T05:32:50.451Z,17.00
2023-04-09T05:34:53.042Z,17.33
2023-04-09T05:36:56.946Z,16.95
2023-04-09T05:38:59.479Z,17.67
2023-04-09T05:41:02.020Z,18.13
2023-04-09T05:43:04.566Z,17.23
2023-04-09T05:45:08.440Z,17.67
2023-04-09T05:47:11.029Z,16.70
2023-04-09T05:49:13.583Z,16.63
2023-04-09T05:51:16.503Z,17.45
2023-04-09T05:53:20.672Z,17.00
2023-04-09T05:55:25.331Z,17.00
2023-04-09T05:57:30.130Z,16.67
2023-04-09T05:59:32.773Z,17.90
2023-04-09T06:01:35.529Z,17.45
2023-04-09T06:03:38.259Z,17.40
2023-04-09T06:05:40.884Z,17.60
2023-04-09T06:07:43.458Z,17.23
2023-04-09T06:09:47.612Z,16.95
2023-04-09T06:11:50.238Z,16.85
2023-04-09T06:13:53.047Z,17.80
2023-04-09T06:15:56.222Z,18.23
2023-04-09T06:17:59.476Z,17.27
2023-04-09T06:20:02.172Z,18.85
2023-04-09T06:22:04.684Z,18.83
2023-04-09T06:24:07.835Z,20.92
2023-04-09T06:26:11.722Z,19.08
2023-04-09T06:28:14.250Z,19.30
2023-04-09T06:30:16.779Z,19.30
2023-04-09T06:32:19.339Z,17.77
2023-04-09T06:34:22.250Z,18.42
2023-04-09T06:36:24.813Z,19.17
2023-04-09T06:38:27.332Z,19.45
2023-04-09T06:40:29.931Z,20.48
2023-04-09T06:42:33.900Z,18.67
2023-04-09T06:44:36.491Z,18.05
2023-04-09T06:46:39.083Z,18.63
2023-04-09T06:48:42.442Z,18.25
2023-04-09T06:50:45.294Z,18.25
2023-04-09T06:52:47.821Z,18.17
2023-04-09T06:54:50.400Z,17.65
2023-04-09T06:56:52.920Z,18.10
2023-04-09T06:58:56.860Z,18.15
2023-04-09T07:01:00.294Z,17.65
2023-04-09T07:03:02.956Z,17.00
2023-04-09T07:05:06.645Z,16.95
2023-04-09T07:07:09.418Z,16.15
2023-04-09T07:09:12.017Z,17.35
2023-04-09T07:11:16.913Z,15.88
2023-04-09T07:13:19.616Z,16.83
2023-04-09T07:15:23.573Z,17.90
2023-04-09T07:17:26.164Z,16.70
2023-04-09T07:19:28.791Z,15.93
2023-04-09T07:21:32.484Z,16.35
2023-04-09T07:23:36.189Z,14.68
2023-04-09T07:25:38.795Z,14.52
2023-04-09T07:27:41.449Z,14.85
2023-04-09T07:29:45.524Z,15.73
2023-04-09T07:31:49.532Z,15.35
2023-04-09T07:33:52.394Z,14.98
2023-04-09T07:35:56.152Z,14.73
2023-04-09T07:37:58.806Z,16.63
2023-04-09T07:40:01.607Z,15.30
2023-04-09T07:42:04.520Z,14.45
2023-04-09T07:44:07.400Z,15.45
2023-04-09T07:46:09.980Z,14.95
2023-04-09T07:48:14.069Z,15.50
2023-04-09T07:50:16.882Z,15.18
2023-04-09T07:52:20.123Z,14.07
2023-04-09T07:54:22.654Z,13.52
2023-04-09T07:56:25.536Z,15.48
2023-04-09T07:58:28.219Z,14.77
2023-04-09T08:00:30.763Z,14.27
2023-04-09T08:02:33.452Z,15.25
2023-04-09T08:04:37.573Z,14.75
2023-04-09T08:06:40.819Z,14.27
2023-04-09T08:08:43.767Z,15.10
2023-04-09T08:10:46.342Z,16.40
2023-04-09T08:12:49.598Z,15.02
2023-04-09T08:14:52.600Z,15.02
2023-04-09T08:16:55.499Z,14.02
2023-04-09T08:18:58.265Z,13.70
2023-04-09T08:21:05.985Z,13.48
2023-04-09T08:23:08.585Z,12.63
2023-04-09T08:25:11.134Z,12.60
2023-04-09T08:27:13.690Z,12.60
2023-04-09T08:29:16.629Z,11.43
2023-04-09T08:31:19.302Z,11.93
2023-04-09T08:33:21.855Z,12.55
2023-04-09T08:35:24.430Z,11.50
2023-04-09T08:37:28.701Z,12.25
2023-04-09T08:39:31.276Z,10.75
2023-04-09T08:41:33.858Z,9.73
2023-04-09T08:43:56.406Z,8.70
2023-04-09T08:46:00.834Z,9.02
2023-04-09T08:48:04.201Z,8.27
2023-04-09T08:50:07.545Z,8.18
2023-04-09T08:52:10.152Z,7.20
2023-04-09T08:54:17.022Z,6.93
2023-04-09T08:56:21.291Z,6.18
2023-04-09T08:58:23.846Z,7.03
2023-04-09T09:00:27.107Z,6.65
2023-04-09T09:02:31.401Z,6.22
2023-04-09T09:04:45.222Z,5.47
2023-04-09T09:06:47.844Z,6.75
2023-04-09T09:09:01.578Z,7.75
2023-04-09T09:11:05.494Z,6.57
2023-04-09T09:13:18.625Z,6.38
2023-04-09T09:15:29.372Z,6.82
2023-04-09T09:17:31.996Z,7.00
2023-04-09T09:19:35.148Z,7.05
2023-04-09T09:21:38.620Z,7.38
2023-04-09T09:23:42.326Z,6.88
2023-04-09T09:25:44.870Z,6.80
2023-04-09T09:27:48.760Z,7.10
2023-04-09T09:29:51.328Z,7.32
2023-04-09T09:31:55.225Z,6.95
2023-04-09T09:33:57.880Z,7.57
2023-04-09T09:36:02.222Z,8.13
2023-04-09T09:38:05.451Z,8.05
2023-04-09T09:40:09.430Z,8.55
2023-04-09T09:42:11.954Z,8.13
2023-04-09T09:44:33.358Z,8.00
2023-04-09T09:46:38.324Z,9.20
2023-04-09T09:48:40.994Z,9.25
2023-04-09T09:50:45.763Z,8.30
2023-04-09T09:52:48.730Z,9.13
2023-04-09T09:54:53.798Z,9.45
2023-04-09T09:57:01.019Z,8.98
2023-04-09T09:59:11.054Z,8.88
2023-04-09T10:01:18.493Z,8.88
2023-04-09T10:03:24.305Z,9.43
2023-04-09T10:05:27.803Z,9.63
2023-04-09T10:07:31.779Z,9.90
2023-04-09T10:09:36.288Z,9.10
2023-04-09T10:11:39.453Z,10.50
2023-04-09T10:13:47.447Z,9.50
2023-04-09T10:15:50.933Z,9.10
2023-04-09T10:17:56.079Z,8.48
2023-04-09T10:20:07.163Z,7.95
2023-04-09T10:22:12.676Z,8.23
2023-04-09T10:24:16.002Z,8.57
2023-04-09T10:26:20.361Z,9.27
2023-04-09T10:28:24.252Z,8.30
2023-04-09T10:30:33.208Z,9.57
2023-04-09T10:32:36.922Z,8.40
2023-04-09T10:34:42.102Z,9.48
2023-04-09T10:36:45.539Z,8.32
2023-04-09T10:38:48.748Z,8.00
2023-04-09T10:40:52.132Z,10.43
2023-04-09T10:42:57.094Z,8.73
2023-04-09T10:45:08.764Z,7.80
2023-04-09T10:47:12.958Z,8.60
2023-04-09T10:49:18.339Z,8.50
2023-04-09T10:51:22.421Z,10.20
2023-04-09T10:53:26.494Z,11.15
2023-04-09T10:55:35.623Z,9.05
2023-04-09T10:57:38.174Z,8.10
2023-04-09T10:59:43.534Z,8.20
2023-04-09T11:01:53.743Z,7.72
2023-04-09T11:04:10.831Z,7.57
2023-04-09T11:06:17.698Z,6.63
2023-04-09T11:08:22.525Z,7.55
2023-04-09T11:10:28.369Z,8.00
2023-04-09T11:12:30.979Z,7.10
2023-04-09T11:14:34.854Z,6.72
2023-04-09T11:16:37.408Z,6.78
2023-04-09T11:18:40.438Z,6.85
2023-04-09T11:20:43.118Z,7.35
2023-04-09T11:22:45.941Z,7.80
2023-04-09T11:24:50.862Z,6.82
2023-04-09T11:26:55.872Z,7.30
2023-04-09T11:28:58.983Z,6.93
2023-04-09T11:31:01.801Z,6.25
2023-04-09T11:33:04.658Z,7.18
2023-04-09T11:35:13.717Z,7.20
2023-04-09T11:37:17.165Z,7.05
2023-04-09T11:39:19.806Z,6.88
2023-04-09T11:41:35.036Z,5.88
2023-04-09T11:43:37.633Z,6.85
2023-04-09T11:45:40.240Z,6.45
2023-04-09T11:47:43.892Z,6.82
2023-04-09T11:49:47.462Z,6.53
2023-04-09T11:51:50.868Z,6.63
2023-04-09T11:53:53.680Z,7.03
2023-04-09T11:55:58.580Z,6.95
2023-04-09T11:58:05.366Z,6.30
2023-04-09T12:00:13.567Z,6.38
2023-04-09T12:02:19.281Z,6.80
2023-04-09T12:04:22.326Z,6.88
2023-04-09T12:06:25.453Z,6.45
2023-04-09T12:08:28.615Z,6.68
2023-04-09T12:10:33.960Z,7.13
2023-04-09T12:12:43.831Z,6.47
2023-04-09T12:14:48.365Z,7.03
2023-04-09T12:16:53.201Z,6.88
2023-04-09T12:18:56.300Z,6.05
2023-04-09T12:20:59.096Z,6.75
2023-04-09T12:23:04.040Z,6.40
2023-04-09T12:25:07.382Z,6.57
2023-04-09T12:27:10.892Z,6.60
2023-04-09T12:29:14.860Z,5.65
2023-04-09T12:31:18.797Z,6.57
2023-04-09T12:33:21.964Z,5.57
2023-04-09T12:35:24.595Z,5.35
2023-04-09T12:37:28.676Z,6.00
2023-04-09T12:39:33.132Z,5.28
2023-04-09T12:41:36.829Z,5.68
2023-04-09T12:43:39.407Z,5.78
2023-04-09T12:45:41.991Z,5.25
2023-04-09T12:47:46.624Z,5.60
2023-04-09T12:49:50.144Z,5.40
2023-04-09T12:51:52.754Z,5.60
2023-04-09T12:53:55.466Z,5.35
2023-04-09T12:55:58.244Z,5.60
2023-04-09T12:58:02.354Z,5.35
2023-04-09T13:00:05.955Z,5.80
2023-04-09T13:02:08.977Z,5.35
2023-04-09T13:04:13.080Z,6.05
2023-04-09T13:06:15.793Z,5.75
2023-04-09T13:08:18.395Z,5.85
2023-04-09T13:10:20.972Z,5.70
2023-04-09T13:12:23.745Z,5.38
2023-04-09T13:14:26.380Z,5.25
2023-04-09T13:16:29.320Z,5.25
2023-04-09T13:18:31.880Z,5.88
2023-04-09T13:20:36.218Z,6.50
2023-04-09T13:22:38.840Z,5.85
2023-04-09T13:24:41.400Z,5.28
2023-04-09T13:26:43.966Z,6.07
2023-04-09T13:28:46.597Z,5.30
2023-04-09T13:30:49.210Z,5.57
2023-04-09T13:32:51.907Z,5.90
2023-04-09T13:34:55.692Z,5.43
2023-04-09T13:36:59.621Z,5.10
2023-04-09T13:39:04.411Z,5.55
2023-04-09T13:41:07.453Z,5.10
2023-04-09T13:43:10.032Z,4.78
2023-04-09T13:45:12.566Z,5.30
2023-04-09T13:47:16.431Z,5.40
2023-04-09T13:49:19.012Z,7.75
2023-04-09T13:51:21.964Z,5.75
2023-04-09T13:53:26.062Z,5.22
2023-04-09T13:55:28.595Z,4.53
2023-04-09T13:57:31.236Z,4.72
2023-04-09T13:59:33.884Z,5.20
2023-04-09T14:01:39.625Z,4.53
2023-04-09T14:03:43.182Z,4.75
2023-04-09T14:05:46.196Z,4.68
2023-04-09T14:07:48.730Z,4.80
2023-04-09T14:09:52.618Z,5.30
2023-04-09T14:11:56.094Z,5.25
2023-04-09T14:13:58.647Z,4.55
2023-04-09T14:16:01.244Z,5.18
2023-04-09T14:18:03.833Z,4.90
2023-04-09T14:20:07.680Z,5.18
2023-04-09T14:22:11.441Z,5.13
2023-04-09T14:24:14.018Z,4.95
2023-04-09T14:26:18.886Z,5.53
2023-04-09T14:28:21.445Z,5.28
2023-04-09T14:30:24.086Z,5.25
2023-04-09T14:32:26.716Z,6.15
2023-04-09T14:34:31.103Z,5.63
2023-04-09T14:36:33.632Z,5.78
2023-04-09T14:38:36.202Z,5.47
2023-04-09T14:40:38.756Z,5.82
2023-04-09T14:42:43.249Z,6.20
2023-04-09T14:44:45.797Z,5.65
2023-04-09T14:46:48.369Z,5.43
2023-04-09T14:48:51.157Z,5.43
2023-04-09T14:50:53.860Z,5.18
2023-04-09T14:52:56.425Z,5.20
2023-04-09T14:54:58.991Z,5.35
2023-04-09T14:57:02.868Z,5.07
2023-04-09T14:59:06.860Z,5.68
2023-04-09T15:01:09.435Z,5.50
2023-04-09T15:03:12.394Z,5.20
2023-04-09T15:05:15.912Z,5.95
2023-04-09T15:07:18.506Z,5.85
2023-04-09T15:09:21.083Z,6.18
2023-04-09T15:11:23.640Z,6.63
2023-04-09T15:13:26.231Z,6.50
2023-04-09T15:15:30.152Z,7.13
2023-04-09T15:17:33.308Z,6.80
2023-04-09T15:19:36.069Z,6.55
2023-04-09T15:21:38.663Z,5.97
2023-04-09T15:23:41.411Z,6.40
2023-04-09T15:25:43.948Z,6.00
2023-04-09T15:27:46.877Z,6.22
2023-04-09T15:29:49.411Z,6.20
2023-04-09T15:31:54.272Z,5.72
2023-04-09T15:33:56.857Z,5.70
2023-04-09T15:35:59.578Z,6.00
2023-04-09T15:38:02.183Z,5.63
2023-04-09T15:40:05.393Z,5.22
2023-04-09T15:42:10.315Z,5.20
2023-04-09T15:44:13.767Z,5.43
2023-04-09T15:46:18.055Z,5.80
2023-04-09T15:48:22.026Z,5.78
2023-04-09T15:50:24.679Z,5.60
2023-04-09T15:52:27.571Z,6.20
2023-04-09T15:54:30.340Z,6.50
2023-04-09T15:56:32.942Z,5.50
2023-04-09T15:58:36.114Z,5.93
2023-04-09T16:00:38.688Z,5.90
2023-04-09T16:02:41.219Z,5.88
2023-04-09T16:04:45.278Z,5.60
2023-04-09T16:06:47.858Z,5.78
2023-04-09T16:08:51.170Z,5.45
2023-04-09T16:10:53.964Z,5.05
2023-04-09T16:12:56.494Z,4.45
2023-04-09T16:14:59.532Z,5.60
2023-04-09T16:17:02.394Z,5.03
2023-04-09T16:19:05.035Z,4.82
2023-04-09T16:21:08.994Z,5.18
2023-04-09T16:23:11.586Z,4.70
2023-04-09T16:25:14.243Z,5.28
2023-04-09T16:27:16.968Z,5.00
2023-04-09T16:29:19.525Z,4.93
2023-04-09T16:31:22.139Z,5.07
2023-04-09T16:33:24.932Z,5.28
2023-04-09T16:35:27.542Z,4.80
2023-04-09T16:37:31.994Z,4.55
2023-04-09T16:39:34.573Z,4.97
2023-04-09T16:41:37.212Z,5.65
2023-04-09T16:43:39.794Z,5.53
2023-04-09T16:45:42.362Z,5.65
2023-04-09T16:47:46.547Z,5.50
2023-04-09T16:49:50.509Z,5.28
2023-04-09T16:51:53.991Z,5.80
2023-04-09T16:53:57.942Z,5.60
2023-04-09T16:56:00.468Z,5.15
2023-04-09T16:58:03.296Z,4.68
2023-04-09T17:00:07.017Z,5.80
2023-04-09T17:02:09.841Z,5.90
2023-04-09T17:04:12.451Z,5.80
2023-04-09T17:06:15.000Z,5.53
2023-04-09T17:08:18.138Z,5.75
2023-04-09T17:10:22.281Z,5.53
2023-04-09T17:12:25.154Z,5.70
2023-04-09T17:14:27.715Z,6.05
2023-04-09T17:16:30.417Z,5.60
2023-04-09T17:18:34.454Z,4.75
2023-04-09T17:20:37.016Z,5.20
2023-04-09T17:22:39.932Z,5.50
2023-04-09T17:24:42.446Z,5.85
2023-04-09T17:26:46.363Z,6.07
2023-04-09T17:28:48.916Z,5.93
2023-04-09T17:30:51.535Z,5.65
2023-04-09T17:32:54.186Z,6.22
2023-04-09T17:34:56.782Z,5.60
2023-04-09T17:36:59.980Z,5.40
2023-04-09T17:39:02.960Z,5.95
2023-04-09T17:41:07.582Z,6.15
2023-04-09T17:43:12.028Z,5.78
2023-04-09T17:45:14.616Z,6.10
2023-04-09T17:47:17.838Z,6.32
2023-04-09T17:49:22.331Z,5.88
2023-04-09T17:51:24.933Z,6.57
2023-04-09T17:53:27.498Z,6.05
2023-04-09T17:55:30.473Z,6.75
2023-04-09T17:57:33.348Z,5.72
2023-04-09T17:59:38.085Z,7.15
2023-04-09T18:01:40.799Z,6.40
2023-04-09T18:03:45.558Z,6.28
2023-04-09T18:05:48.627Z,6.13
2023-04-09T18:07:52.201Z,6.72
2023-04-09T18:09:56.615Z,6.10
2023-04-09T18:12:01.281Z,6.20
2023-04-09T18:14:07.807Z,7.03
2023-04-09T18:16:12.330Z,6.45
2023-04-09T18:18:15.535Z,7.07
2023-04-09T18:20:18.198Z,5.85
2023-04-09T18:22:20.738Z,6.40
2023-04-09T18:24:23.345Z,6.63
2023-04-09T18:26:26.140Z,6.57
2023-04-09T18:28:29.214Z,7.25
2023-04-09T18:30:31.762Z,7.30
2023-04-09T18:32:35.710Z,7.15
2023-04-09T18:34:38.251Z,7.45
2023-04-09T18:36:43.304Z,7.53
2023-04-09T18:38:45.825Z,7.03
2023-04-09T18:40:48.347Z,7.75
2023-04-09T18:42:53.293Z,7.47
2023-04-09T18:44:56.331Z,7.40
2023-04-09T18:47:00.357Z,7.95
2023-04-09T18:49:04.255Z,7.05
2023-04-09T18:51:07.094Z,7.93
2023-04-09T18:53:12.463Z,7.00
2023-04-09T18:55:16.217Z,7.47
2023-04-09T18:57:18.761Z,6.72
2023-04-09T18:59:21.728Z,6.95
2023-04-09T19:01:24.291Z,6.88
2023-04-09T19:03:30.095Z,7.10
2023-04-09T19:05:35.063Z,7.22
2023-04-09T19:07:37.750Z,7.15
2023-04-09T19:09:41.608Z,6.80
2023-04-09T19:11:44.150Z,7.57
2023-04-09T19:13:46.687Z,7.20
2023-04-09T19:15:49.282Z,7.85
2023-04-09T19:17:52.003Z,8.02
2023-04-09T19:19:54.572Z,8.20
2023-04-09T19:21:59.219Z,7.85
2023-04-09T19:24:03.787Z,8.38
2023-04-09T19:26:08.068Z,8.55
2023-04-09T19:28:11.450Z,7.18
2023-04-09T19:30:14.244Z,7.72
2023-04-09T19:32:16.796Z,8.23
2023-04-09T19:34:19.376Z,7.63
2023-04-09T19:36:22.525Z,8.00
2023-04-09T19:38:26.413Z,8.52
2023-04-09T19:40:28.958Z,7.93
2023-04-09T19:42:32.659Z,8.38
2023-04-09T19:44:35.244Z,7.95
2023-04-09T19:46:37.810Z,8.15
2023-04-09T19:48:40.798Z,8.60
2023-04-09T19:50:45.192Z,8.93
2023-04-09T19:52:47.743Z,8.93
2023-04-09T19:54:56.325Z,9.85
2023-04-09T19:56:59.783Z,9.00
2023-04-09T19:59:02.311Z,8.73
2023-04-09T20:01:05.177Z,9.18
2023-04-09T20:03:08.050Z,8.80
2023-04-09T20:05:11.583Z,8.60
2023-04-09T20:07:14.390Z,8.07
2023-04-09T20:09:18.106Z,8.73
2023-04-09T20:11:21.989Z,9.05
2023-04-09T20:13:25.316Z,8.77
2023-04-09T20:15:28.272Z,8.60
2023-04-09T20:17:30.940Z,8.75
2023-04-09T20:19:33.489Z,9.27
2023-04-09T20:21:36.156Z,9.10
2023-04-09T20:23:38.701Z,9.82
2023-04-09T20:25:41.265Z,8.95
2023-04-09T20:27:45.150Z,9.00
2023-04-09T20:29:47.994Z,9.20
2023-04-09T20:31:51.886Z,8.77
2023-04-09T20:33:54.477Z,9.27
2023-04-09T20:35:57.164Z,8.82
2023-04-09T20:37:59.746Z,9.20
2023-04-09T20:40:02.340Z,9.50
2023-04-09T20:42:05.119Z,9.77
2023-04-09T20:44:09.009Z,9.20
2023-04-09T20:46:11.843Z,9.82
2023-04-09T20:48:14.869Z,9.70
2023-04-09T20:50:19.309Z,9.25
2023-04-09T20:52:21.938Z,9.52
2023-04-09T20:54:24.528Z,9.85
2023-04-09T20:56:27.182Z,9.05
2023-04-09T20:58:29.738Z,9.00
2023-04-09T21:00:33.643Z,9.20
2023-04-09T21:02:36.252Z,10.15
2023-04-09T21:04:38.876Z,9.52
2023-04-09T21:06:41.448Z,10.02
2023-04-09T21:08:44.189Z,9.07
2023-04-09T21:10:46.750Z,10.18
2023-04-09T21:12:49.384Z,9.95
2023-04-09T21:14:54.787Z,9.50
2023-04-09T21:16:58.876Z,9.40
2023-04-09T21:19:06.840Z,9.73
2023-04-09T21:21:09.620Z,9.73
2023-04-09T21:23:12.235Z,10.00
2023-04-09T21:25:15.607Z,10.07
2023-04-09T21:27:18.305Z,9.63
2023-04-09T21:29:21.582Z,10.48
2023-04-09T21:31:24.716Z,10.57
2023-04-09T21:33:30.016Z,10.07
2023-04-09T21:35:32.919Z,10.65
2023-04-09T21:37:37.461Z,10.43
2023-04-09T21:39:40.063Z,11.13
2023-04-09T21:41:42.588Z,10.45
2023-04-09T21:43:45.261Z,10.65
2023-04-09T21:45:48.537Z,10.32
2023-04-09T21:47:51.710Z,9.85
2023-04-09T21:49:56.251Z,9.38
2023-04-09T21:52:00.536Z,9.20
2023-04-09T21:54:05.062Z,10.60
2023-04-09T21:56:08.474Z,10.15
2023-04-09T21:58:11.928Z,9.98
2023-04-09T22:00:16.228Z,10.73
2023-04-09T22:02:18.976Z,10.70
2023-04-09T22:04:21.730Z,9.75
2023-04-09T22:06:27.025Z,9.55
2023-04-09T22:08:29.590Z,10.07
2023-04-09T22:10:32.286Z,9.93
2023-04-09T22:12:36.145Z,10.13
2023-04-09T22:14:40.592Z,10.80
2023-04-09T22:16:44.263Z,10.13
2023-04-09T22:18:46.811Z,9.57
2023-04-09T22:20:49.334Z,9.80
2023-04-09T22:22:54.681Z,10.40
2023-04-09T22:24:57.311Z,9.88
2023-04-09T22:27:01.357Z,8.82
2023-04-09T22:29:05.704Z,10.48
2023-04-09T22:31:09.475Z,10.88
2023-04-09T22:33:12.019Z,9.60
2023-04-09T22:35:18.046Z,9.43
2023-04-09T22:37:20.582Z,9.88
2023-04-09T22:39:24.458Z,10.00
2023-04-09T22:41:27.137Z,9.43
2023-04-09T22:43:29.779Z,10.02
2023-04-09T22:45:32.366Z,9.63
2023-04-09T22:47:34.968Z,10.82
2023-04-09T22:49:37.591Z,9.63
2023-04-09T22:51:41.725Z,9.45
2023-04-09T22:53:44.491Z,10.30
2023-04-09T22:55:50.969Z,9.63
2023-04-09T22:57:54.839Z,9.10
2023-04-09T22:59:57.597Z,8.88
2023-04-09T23:02:00.376Z,8.52
2023-04-09T23:04:03.292Z,9.00
2023-04-09T23:06:06.330Z,9.32
2023-04-09T23:08:08.948Z,8.57
2023-04-09T23:10:14.104Z,8.65
2023-04-09T23:12:17.973Z,7.88
2023-04-09T23:14:20.589Z,8.38
2023-04-09T23:16:23.211Z,9.68
2023-04-09T23:18:26.268Z,8.43
2023-04-09T23:20:29.882Z,8.48
2023-04-09T23:22:32.395Z,8.77
2023-04-09T23:24:34.969Z,7.75
2023-04-09T23:26:37.502Z,8.32
2023-04-09T23:28:41.452Z,8.02
2023-04-09T23:30:44.961Z,7.82
2023-04-09T23:32:48.158Z,7.70
2023-04-09T23:34:51.795Z,7.88
2023-04-09T23:36:54.382Z,8.93
2023-04-09T23:38:56.898Z,9.85
2023-04-09T23:40:59.438Z,10.02
2023-04-09T23:43:02.177Z,11.43
2023-04-09T23:45:07.340Z,10.65
2023-04-09T23:47:09.928Z,11.02
2023-04-09T23:49:12.568Z,11.60
2023-04-09T23:51:18.055Z,10.63
2023-04-09T23:53:21.235Z,11.25
2023-04-09T23:55:23.923Z,10.90
2023-04-09T23:57:27.246Z,11.10
2023-04-09T23:59:33.662Z,10.30
